createdAt,value
2023-02-24T00:02:00.063Z,12.99
2023-02-24T00:04:33.349Z,13.39
2023-02-24T00:07:00.127Z,13.16
2023-02-24T00:09:29.039Z,12.82
2023-02-24T00:11:58.062Z,12.88
2023-02-24T00:14:27.969Z,12.67
2023-02-24T00:16:55.051Z,12.74
2023-02-24T00:19:24.115Z,12.60
2023-02-24T00:21:51.659Z,12.44
2023-02-24T00:24:18.440Z,12.49
2023-02-24T00:26:46.004Z,12.38
2023-02-24T00:29:16.230Z,12.46
2023-02-24T00:31:43.297Z,12.52
2023-02-24T00:34:12.781Z,12.63
2023-02-24T00:36:39.937Z,12.59
2023-02-24T00:39:11.169Z,12.61
2023-02-24T00:41:41.277Z,12.84
2023-02-24T00:44:10.339Z,12.77
2023-02-24T00:46:43.105Z,12.82
2023-02-24T00:49:17.171Z,12.83
2023-02-24T00:51:46.802Z,12.82
2023-02-24T00:54:15.081Z,12.50
2023-02-24T00:56:46.806Z,12.33
2023-02-24T00:59:16.785Z,12.46
2023-02-24T01:01:47.103Z,12.28
2023-02-24T01:04:14.316Z,12.24
2023-02-24T01:06:46.395Z,12.32
2023-02-24T01:09:16.058Z,12.47
2023-02-24T01:12:03.079Z,12.49
2023-02-24T01:14:32.545Z,12.44
2023-02-24T01:16:59.852Z,12.53
2023-02-24T01:19:31.686Z,12.57
2023-02-24T01:22:01.138Z,12.70
2023-02-24T01:24:30.942Z,12.61
2023-02-24T01:26:57.627Z,12.62
2023-02-24T01:29:25.812Z,12.84
2023-02-24T01:31:53.025Z,12.72
2023-02-24T01:34:19.826Z,12.63
2023-02-24T01:36:46.884Z,12.30
2023-02-24T01:39:13.701Z,12.81
2023-02-24T01:41:45.729Z,12.78
2023-02-24T01:44:17.866Z,12.39
2023-02-24T01:46:46.851Z,12.55
2023-02-24T01:49:25.098Z,12.10
2023-02-24T01:52:02.587Z,12.24
2023-02-24T01:54:35.304Z,12.32
2023-02-24T01:57:05.953Z,12.15
2023-02-24T01:59:35.581Z,12.30
2023-02-24T02:02:07.189Z,12.15
2023-02-24T02:04:42.825Z,12.15
2023-02-24T02:07:12.689Z,12.11
2023-02-24T02:09:43.731Z,12.17
2023-02-24T02:12:11.349Z,11.98
2023-02-24T02:14:47.688Z,11.82
2023-02-24T02:17:29.787Z,11.94
2023-02-24T02:20:16.116Z,11.92
2023-02-24T02:23:00.548Z,12.20
2023-02-24T02:25:59.847Z,11.90
2023-02-24T02:28:45.536Z,11.84
2023-02-24T02:31:40.429Z,11.88
2023-02-24T02:34:24.679Z,11.70
2023-02-24T02:37:03.258Z,11.69
2023-02-24T02:40:20.046Z,12.22
2023-02-24T02:42:58.142Z,12.06
2023-02-24T02:45:31.130Z,11.86
2023-02-24T02:48:15.400Z,11.83
2023-02-24T02:50:48.110Z,11.78
2023-02-24T02:53:24.753Z,11.65
2023-02-24T02:56:06.800Z,11.56
2023-02-24T02:58:37.723Z,11.87
2023-02-24T03:01:07.354Z,12.21
2023-02-24T03:03:42.746Z,12.30
2023-02-24T03:06:15.535Z,12.41
2023-02-24T03:08:48.867Z,12.30
2023-02-24T03:11:18.719Z,12.26
2023-02-24T03:13:49.774Z,12.09
2023-02-24T03:16:17.990Z,11.95
2023-02-24T03:18:51.731Z,11.89
2023-02-24T03:21:40.874Z,11.41
2023-02-24T03:24:07.878Z,11.02
2023-02-24T03:26:50.200Z,11.34
2023-02-24T03:29:49.021Z,11.49
2023-02-24T03:32:26.914Z,11.45
2023-02-24T03:35:01.909Z,11.48
2023-02-24T03:37:30.093Z,11.40
2023-02-24T03:39:59.802Z,11.15
2023-02-24T03:42:32.820Z,11.26
2023-02-24T03:45:00.074Z,11.28
2023-02-24T03:47:27.148Z,11.13
2023-02-24T03:49:53.939Z,11.23
2023-02-24T03:52:26.253Z,11.31
2023-02-24T03:55:30.704Z,11.32
2023-02-24T03:58:41.835Z,11.37
2023-02-24T04:01:20.821Z,11.53
2023-02-24T04:03:54.441Z,11.47
2023-02-24T04:06:44.506Z,11.28
2023-02-24T04:09:50.333Z,11.48
2023-02-24T04:12:24.082Z,11.20
2023-02-24T04:15:04.646Z,11.00
2023-02-24T04:18:02.293Z,11.07
2023-02-24T04:20:32.418Z,10.99
2023-02-24T04:23:15.972Z,11.08
2023-02-24T04:25:46.017Z,10.81
2023-02-24T04:28:13.780Z,10.95
2023-02-24T04:30:48.529Z,10.87
2023-02-24T04:33:15.533Z,11.02
2023-02-24T04:35:45.245Z,11.29
2023-02-24T04:38:12.289Z,11.31
2023-02-24T04:40:40.919Z,11.29
2023-02-24T04:43:07.934Z,11.10
2023-02-24T04:45:35.002Z,11.05
2023-02-24T04:48:02.962Z,10.86
2023-02-24T04:50:34.733Z,10.84
2023-02-24T04:53:06.967Z,10.71
2023-02-24T04:55:40.120Z,10.42
2023-02-24T04:58:11.928Z,10.73
2023-02-24T05:00:42.128Z,10.69
2023-02-24T05:03:11.863Z,10.80
2023-02-24T05:05:39.136Z,10.85
2023-02-24T05:08:08.200Z,10.57
2023-02-24T05:10:39.138Z,10.29
2023-02-24T05:13:07.144Z,10.59
2023-02-24T05:15:34.096Z,10.65
2023-02-24T05:18:14.221Z,11.19
2023-02-24T05:21:02.171Z,11.04
2023-02-24T05:23:35.359Z,11.03
2023-02-24T05:26:09.063Z,11.34
2023-02-24T05:28:37.868Z,10.96
2023-02-24T05:31:14.942Z,11.09
2023-02-24T05:33:42.993Z,11.28
2023-02-24T05:36:15.270Z,11.12
2023-02-24T05:38:41.908Z,10.97
2023-02-24T05:41:16.968Z,10.67
2023-02-24T05:43:53.132Z,10.68
2023-02-24T05:46:28.443Z,10.73
2023-02-24T05:48:59.532Z,10.79
2023-02-24T05:51:35.903Z,10.90
2023-02-24T05:54:07.643Z,10.87
2023-02-24T05:56:36.764Z,10.92
2023-02-24T05:59:07.962Z,10.88
2023-02-24T06:01:46.895Z,11.16
2023-02-24T06:04:21.128Z,11.38
2023-02-24T06:06:55.204Z,10.99
2023-02-24T06:09:23.396Z,11.28
2023-02-24T06:11:50.446Z,11.34
2023-02-24T06:14:17.197Z,11.21
2023-02-24T06:16:43.909Z,11.07
2023-02-24T06:19:12.740Z,11.17
2023-02-24T06:21:43.935Z,11.42
2023-02-24T06:24:14.641Z,11.07
2023-02-24T06:26:45.868Z,11.25
2023-02-24T06:29:14.908Z,10.90
2023-02-24T06:31:43.031Z,10.96
2023-02-24T06:34:18.587Z,11.02
2023-02-24T06:36:47.016Z,10.89
2023-02-24T06:39:14.794Z,10.74
2023-02-24T06:41:42.718Z,10.83
2023-02-24T06:44:09.613Z,10.88
2023-02-24T06:46:36.966Z,10.86
2023-02-24T06:49:04.221Z,10.89
2023-02-24T06:51:30.951Z,11.03
2023-02-24T06:53:59.518Z,11.01
2023-02-24T06:56:27.899Z,11.36
2023-02-24T06:58:56.897Z,11.29
2023-02-24T07:01:26.045Z,11.18
2023-02-24T07:04:09.131Z,11.16
2023-02-24T07:06:38.337Z,11.22
2023-02-24T07:09:08.995Z,11.56
2023-02-24T07:11:37.376Z,11.32
2023-02-24T07:14:05.860Z,11.39
2023-02-24T07:16:34.718Z,11.28
2023-02-24T07:19:11.440Z,11.24
2023-02-24T07:21:46.317Z,11.24
2023-02-24T07:24:20.337Z,11.28
2023-02-24T07:26:51.813Z,11.32
2023-02-24T07:29:18.543Z,11.14
2023-02-24T07:31:45.496Z,11.26
2023-02-24T07:34:15.127Z,11.45
2023-02-24T07:36:49.423Z,11.67
2023-02-24T07:39:17.250Z,11.48
2023-02-24T07:41:49.516Z,11.63
2023-02-24T07:44:19.073Z,11.23
2023-02-24T07:46:48.974Z,11.29
2023-02-24T07:49:21.645Z,11.66
2023-02-24T07:51:52.802Z,11.67
2023-02-24T07:54:21.372Z,11.56
2023-02-24T07:56:56.966Z,11.92
2023-02-24T07:59:32.777Z,11.56
2023-02-24T08:02:00.709Z,11.64
2023-02-24T08:04:30.110Z,11.46
2023-02-24T08:06:59.111Z,11.29
2023-02-24T08:09:46.624Z,11.39
2023-02-24T08:12:18.185Z,11.16
2023-02-24T08:14:51.130Z,11.22
2023-02-24T08:17:23.916Z,11.33
2023-02-24T08:20:12.437Z,11.40
2023-02-24T08:22:43.944Z,11.88
2023-02-24T08:25:18.876Z,11.89
2023-02-24T08:28:06.990Z,11.64
2023-02-24T08:30:39.670Z,11.73
2023-02-24T08:33:09.244Z,11.83
2023-02-24T08:35:38.943Z,11.87
2023-02-24T08:38:10.241Z,11.86
2023-02-24T08:40:50.483Z,11.96
2023-02-24T08:43:31.764Z,11.89
2023-02-24T08:46:13.857Z,11.73
2023-02-24T08:48:44.171Z,11.71
2023-02-24T08:51:15.848Z,11.52
2023-02-24T08:53:43.481Z,11.73
2023-02-24T08:56:13.502Z,11.57
2023-02-24T08:58:47.508Z,11.27
2023-02-24T09:01:19.450Z,11.36
2023-02-24T09:03:48.567Z,11.05
2023-02-24T09:06:18.226Z,10.94
2023-02-24T09:08:46.003Z,10.50
2023-02-24T09:11:15.439Z,10.60
2023-02-24T09:13:51.939Z,10.63
2023-02-24T09:16:20.383Z,11.02
2023-02-24T09:19:07.406Z,11.14
2023-02-24T09:21:49.093Z,11.08
2023-02-24T09:24:27.147Z,11.41
2023-02-24T09:26:59.719Z,11.79
2023-02-24T09:29:35.998Z,12.19
2023-02-24T09:32:04.931Z,12.34
2023-02-24T09:34:37.527Z,12.30
2023-02-24T09:37:05.281Z,12.19
2023-02-24T09:39:52.642Z,12.17
2023-02-24T09:42:21.612Z,11.95
2023-02-24T09:44:52.858Z,12.17
2023-02-24T09:47:40.345Z,12.32
2023-02-24T09:50:55.092Z,12.42
2023-02-24T09:53:19.923Z,12.31
2023-02-24T09:56:04.932Z,12.36
2023-02-24T09:58:48.092Z,12.46
2023-02-24T10:01:33.485Z,12.64
2023-02-24T10:04:33.943Z,12.95
2023-02-24T10:07:27.463Z,13.35
2023-02-24T10:10:19.875Z,13.44
2023-02-24T10:12:53.295Z,13.59
2023-02-24T10:15:47.638Z,13.56
2023-02-24T10:18:37.571Z,13.56
2023-02-24T10:21:48.558Z,13.64
2023-02-24T10:24:22.970Z,13.48
2023-02-24T10:27:01.136Z,13.21
2023-02-24T10:29:40.017Z,13.44
2023-02-24T10:32:31.741Z,13.45
2023-02-24T10:34:58.428Z,13.55
2023-02-24T10:37:29.605Z,13.50
2023-02-24T10:39:58.744Z,13.38
2023-02-24T10:42:31.673Z,13.24
2023-02-24T10:45:34.682Z,13.26
2023-02-24T10:48:07.495Z,13.32
2023-02-24T10:50:55.423Z,13.35
2023-02-24T10:53:29.791Z,13.57
2023-02-24T10:56:22.608Z,13.73
2023-02-24T10:59:20.574Z,13.98
2023-02-24T11:02:06.801Z,14.19
2023-02-24T11:04:56.222Z,14.57
2023-02-24T11:07:33.540Z,14.83
2023-02-24T11:10:32.910Z,14.88
2023-02-24T11:13:19.965Z,14.77
2023-02-24T11:16:12.223Z,14.77
2023-02-24T11:18:40.311Z,14.76
2023-02-24T11:21:11.118Z,14.85
2023-02-24T11:23:44.740Z,15.02
2023-02-24T11:26:16.916Z,14.83
2023-02-24T11:28:59.864Z,14.95
2023-02-24T11:31:43.964Z,15.18
2023-02-24T11:34:35.240Z,15.21
2023-02-24T11:37:37.336Z,15.27
2023-02-24T11:40:23.945Z,15.34
2023-02-24T11:42:57.008Z,15.70
2023-02-24T11:45:51.262Z,15.74
2023-02-24T11:48:38.961Z,15.88
2023-02-24T11:51:12.101Z,16.04
2023-02-24T11:53:59.258Z,15.91
2023-02-24T11:56:34.253Z,15.81
2023-02-24T11:59:11.200Z,15.74
2023-02-24T12:01:44.935Z,16.06
2023-02-24T12:04:26.517Z,16.14
2023-02-24T12:07:22.001Z,16.14
2023-02-24T12:10:14.154Z,16.31
2023-02-24T12:12:52.912Z,16.81
2023-02-24T12:15:28.473Z,16.52
2023-02-24T12:18:11.369Z,16.66
2023-02-24T12:20:48.217Z,16.47
2023-02-24T12:23:21.135Z,16.37
2023-02-24T12:26:06.245Z,16.60
2023-02-24T12:28:51.365Z,16.65
2023-02-24T12:31:45.762Z,16.84
2023-02-24T12:34:22.951Z,17.02
2023-02-24T12:36:52.512Z,17.08
2023-02-24T12:39:31.819Z,16.87
2023-02-24T12:42:14.497Z,16.93
2023-02-24T12:45:08.731Z,16.94
2023-02-24T12:47:59.612Z,17.02
2023-02-24T12:50:26.375Z,17.10
2023-02-24T12:53:11.373Z,16.92
2023-02-24T12:55:55.989Z,17.23
2023-02-24T12:58:28.597Z,16.98
2023-02-24T13:01:01.479Z,16.88
2023-02-24T13:03:34.595Z,16.71
2023-02-24T13:06:19.125Z,16.80
2023-02-24T13:09:18.406Z,16.62
2023-02-24T13:12:12.991Z,16.43
2023-02-24T13:14:42.157Z,16.47
2023-02-24T13:17:11.559Z,16.66
2023-02-24T13:19:40.338Z,16.48
2023-02-24T13:22:19.653Z,16.42
2023-02-24T13:24:55.196Z,16.27
2023-02-24T13:27:24.580Z,16.33
2023-02-24T13:29:55.565Z,16.40
2023-02-24T13:32:35.984Z,16.11
2023-02-24T13:35:04.651Z,15.83
2023-02-24T13:37:39.393Z,15.84
2023-02-24T13:40:16.560Z,15.88
2023-02-24T13:42:55.830Z,16.19
2023-02-24T13:45:24.759Z,16.01
2023-02-24T13:48:22.143Z,15.89
2023-02-24T13:51:08.276Z,15.96
2023-02-24T13:53:58.911Z,15.94
2023-02-24T13:56:42.977Z,16.07
2023-02-24T13:59:31.675Z,16.06
2023-02-24T14:02:01.894Z,16.11
2023-02-24T14:04:32.172Z,16.08
2023-02-24T14:07:04.158Z,16.00
2023-02-24T14:09:38.854Z,15.78
2023-02-24T14:12:15.453Z,15.57
2023-02-24T14:14:44.562Z,15.38
2023-02-24T14:17:31.343Z,15.07
2023-02-24T14:20:11.440Z,15.15
2023-02-24T14:22:49.986Z,14.99
2023-02-24T14:25:18.086Z,14.94
2023-02-24T14:27:48.402Z,14.86
2023-02-24T14:30:23.098Z,14.94
2023-02-24T14:32:49.901Z,14.91
2023-02-24T14:35:23.786Z,14.91
2023-02-24T14:37:50.371Z,14.74
2023-02-24T14:40:17.292Z,14.82
2023-02-24T14:42:49.098Z,14.79
2023-02-24T14:45:18.760Z,14.63
2023-02-24T14:47:45.696Z,14.62
2023-02-24T14:50:18.720Z,14.40
2023-02-24T14:52:51.170Z,14.27
2023-02-24T14:55:21.985Z,14.18
2023-02-24T14:57:57.765Z,13.98
2023-02-24T15:00:29.927Z,14.13
2023-02-24T15:03:02.467Z,14.12
2023-02-24T15:05:29.227Z,14.07
2023-02-24T15:07:56.157Z,14.12
2023-02-24T15:10:26.729Z,14.19
2023-02-24T15:13:05.690Z,14.24
2023-02-24T15:15:39.262Z,14.29
2023-02-24T15:18:16.652Z,14.02
2023-02-24T15:20:43.414Z,14.16
2023-02-24T15:23:29.251Z,14.38
2023-02-24T15:25:56.017Z,14.12
2023-02-24T15:28:35.513Z,14.22
2023-02-24T15:31:17.538Z,14.14
2023-02-24T15:34:00.909Z,14.28
2023-02-24T15:36:32.505Z,14.32
2023-02-24T15:39:23.303Z,14.52
2023-02-24T15:41:51.682Z,14.33
2023-02-24T15:44:36.452Z,14.28
2023-02-24T15:47:23.264Z,14.25
2023-02-24T15:49:50.073Z,14.17
2023-02-24T15:52:23.242Z,14.03
2023-02-24T15:54:50.658Z,14.00
2023-02-24T15:57:18.774Z,14.07
2023-02-24T15:59:45.408Z,14.14
2023-02-24T16:02:19.561Z,14.08
2023-02-24T16:04:47.475Z,13.90
2023-02-24T16:07:32.542Z,14.04
2023-02-24T16:10:00.599Z,14.13
2023-02-24T16:12:32.164Z,14.28
2023-02-24T16:15:02.850Z,13.89
2023-02-24T16:17:40.279Z,13.87
2023-02-24T16:20:17.070Z,13.91
2023-02-24T16:22:43.813Z,13.98
2023-02-24T16:25:14.554Z,13.76
2023-02-24T16:27:41.242Z,13.68
2023-02-24T16:30:16.618Z,13.85
2023-02-24T16:32:43.807Z,13.93
2023-02-24T16:35:11.345Z,13.83
2023-02-24T16:37:38.254Z,13.75
2023-02-24T16:40:24.676Z,13.80
2023-02-24T16:42:52.842Z,13.84
2023-02-24T16:45:26.680Z,14.06
2023-02-24T16:47:56.253Z,14.09
2023-02-24T16:50:43.631Z,14.29
2023-02-24T16:53:16.049Z,14.34
2023-02-24T16:55:43.299Z,14.13
2023-02-24T16:58:10.984Z,14.05
2023-02-24T17:00:39.706Z,14.03
2023-02-24T17:03:16.098Z,13.87
2023-02-24T17:05:43.604Z,13.86
2023-02-24T17:08:11.704Z,13.91
2023-02-24T17:10:40.007Z,13.81
2023-02-24T17:13:06.739Z,13.86
2023-02-24T17:15:33.407Z,13.98
2023-02-24T17:18:00.198Z,13.99
2023-02-24T17:20:27.096Z,13.87
2023-02-24T17:22:53.717Z,13.98
2023-02-24T17:25:25.794Z,13.88
2023-02-24T17:27:54.445Z,13.78
2023-02-24T17:30:27.081Z,13.64
2023-02-24T17:32:54.008Z,13.61
2023-02-24T17:35:21.036Z,13.67
2023-02-24T17:37:47.797Z,13.58
2023-02-24T17:40:14.956Z,13.57
2023-02-24T17:42:42.159Z,13.60
2023-02-24T17:45:09.591Z,13.65
2023-02-24T17:47:36.586Z,13.94
2023-02-24T17:50:03.877Z,14.15
2023-02-24T17:52:32.235Z,13.91
2023-02-24T17:54:59.268Z,13.74
2023-02-24T17:57:27.456Z,13.56
2023-02-24T17:59:54.076Z,13.81
2023-02-24T18:02:20.979Z,13.59
2023-02-24T18:04:50.032Z,13.43
2023-02-24T18:07:17.113Z,13.34
2023-02-24T18:09:43.683Z,13.00
2023-02-24T18:12:10.259Z,13.26
2023-02-24T18:14:36.981Z,13.17
2023-02-24T18:17:03.748Z,13.20
2023-02-24T18:19:30.632Z,13.03
2023-02-24T18:21:57.314Z,13.03
2023-02-24T18:24:23.920Z,13.04
2023-02-24T18:26:50.576Z,13.12
2023-02-24T18:29:17.407Z,13.08
2023-02-24T18:31:44.346Z,13.14
2023-02-24T18:34:11.098Z,13.09
2023-02-24T18:36:37.821Z,13.04
2023-02-24T18:39:05.393Z,12.96
2023-02-24T18:41:32.018Z,12.88
2023-02-24T18:43:59.326Z,12.94
2023-02-24T18:46:26.907Z,12.86
2023-02-24T18:48:53.713Z,12.89
2023-02-24T18:51:23.015Z,12.87
2023-02-24T18:53:52.456Z,12.91
2023-02-24T18:56:23.030Z,13.07
2023-02-24T18:58:50.016Z,13.07
2023-02-24T19:01:22.411Z,13.01
2023-02-24T19:03:50.665Z,13.03
2023-02-24T19:06:20.760Z,13.00
2023-02-24T19:08:49.668Z,13.16
2023-02-24T19:11:19.001Z,12.99
2023-02-24T19:13:49.404Z,12.92
2023-02-24T19:16:17.654Z,12.77
2023-02-24T19:18:45.199Z,12.79
2023-02-24T19:21:13.519Z,12.85
2023-02-24T19:23:40.170Z,12.77
2023-02-24T19:26:15.086Z,12.93
2023-02-24T19:28:41.848Z,12.96
2023-02-24T19:31:29.755Z,12.92
2023-02-24T19:34:10.857Z,12.83
2023-02-24T19:36:38.240Z,12.87
2023-02-24T19:39:08.588Z,12.86
2023-02-24T19:41:36.495Z,12.88
2023-02-24T19:44:03.392Z,13.02
2023-02-24T19:46:34.153Z,12.50
2023-02-24T19:49:01.369Z,12.64
2023-02-24T19:51:28.320Z,12.75
2023-02-24T19:53:56.983Z,12.96
2023-02-24T19:56:25.999Z,13.27
2023-02-24T19:58:54.656Z,13.33
2023-02-24T20:01:26.306Z,13.20
2023-02-24T20:03:56.548Z,12.87
2023-02-24T20:06:35.814Z,12.63
2023-02-24T20:09:06.121Z,12.27
2023-02-24T20:11:38.142Z,12.15
2023-02-24T20:14:06.522Z,12.36
2023-02-24T20:16:34.804Z,12.27
2023-02-24T20:19:01.885Z,12.31
2023-02-24T20:21:28.862Z,12.48
2023-02-24T20:23:55.432Z,12.41
2023-02-24T20:26:22.428Z,12.55
2023-02-24T20:28:49.323Z,12.57
2023-02-24T20:31:19.289Z,12.79
2023-02-24T20:33:47.409Z,12.87
2023-02-24T20:36:18.503Z,13.13
2023-02-24T20:38:45.760Z,13.01
2023-02-24T20:41:12.732Z,12.95
2023-02-24T20:43:39.831Z,12.85
2023-02-24T20:46:14.235Z,12.88
2023-02-24T20:48:41.372Z,13.17
2023-02-24T20:51:09.086Z,13.02
2023-02-24T20:53:51.061Z,12.89
2023-02-24T20:56:23.878Z,12.91
2023-02-24T20:59:00.057Z,12.92
2023-02-24T21:01:27.158Z,12.91
2023-02-24T21:03:53.796Z,13.11
2023-02-24T21:06:20.607Z,12.94
2023-02-24T21:08:47.865Z,12.93
2023-02-24T21:11:15.584Z,12.88
2023-02-24T21:13:44.089Z,12.54
2023-02-24T21:16:12.385Z,12.56
2023-02-24T21:18:40.571Z,12.32
2023-02-24T21:21:08.409Z,12.39
2023-02-24T21:23:36.798Z,12.43
2023-02-24T21:26:04.857Z,12.49
2023-02-24T21:28:31.531Z,12.45
2023-02-24T21:30:58.826Z,12.51
2023-02-24T21:33:25.523Z,12.59
2023-02-24T21:36:03.519Z,12.55
2023-02-24T21:38:31.892Z,12.67
2023-02-24T21:41:03.740Z,12.94
2023-02-24T21:43:30.674Z,12.84
2023-02-24T21:46:01.201Z,12.66
2023-02-24T21:48:29.221Z,12.53
2023-02-24T21:51:00.958Z,12.45
2023-02-24T21:53:27.645Z,12.46
2023-02-24T21:56:11.270Z,12.38
2023-02-24T21:58:39.016Z,12.43
2023-02-24T22:01:14.024Z,12.18
2023-02-24T22:03:41.434Z,12.09
2023-02-24T22:06:10.586Z,12.18
2023-02-24T22:08:43.220Z,11.92
2023-02-24T22:11:15.133Z,11.81
2023-02-24T22:13:42.579Z,11.90
2023-02-24T22:16:11.840Z,12.12
2023-02-24T22:18:38.822Z,12.13
2023-02-24T22:21:11.387Z,12.27
2023-02-24T22:23:38.358Z,11.86
2023-02-24T22:26:07.555Z,12.10
2023-02-24T22:28:35.973Z,11.93
2023-02-24T22:31:03.128Z,11.99
2023-02-24T22:33:31.431Z,12.02
2023-02-24T22:36:19.161Z,12.09
2023-02-24T22:38:46.358Z,11.96
2023-02-24T22:41:16.064Z,11.52
2023-02-24T22:43:43.422Z,11.38
2023-02-24T22:46:19.152Z,11.55
2023-02-24T22:48:45.849Z,11.46
2023-02-24T22:51:13.854Z,11.52
2023-02-24T22:53:43.399Z,11.30
2023-02-24T22:56:14.827Z,11.46
2023-02-24T22:58:41.537Z,11.58
2023-02-24T23:01:10.265Z,11.74
2023-02-24T23:03:37.254Z,12.02
2023-02-24T23:06:06.815Z,11.76
2023-02-24T23:08:36.171Z,11.90
2023-02-24T23:11:06.121Z,12.19
2023-02-24T23:13:36.470Z,12.21
2023-02-24T23:16:03.613Z,12.18
2023-02-24T23:18:32.302Z,11.96
2023-02-24T23:21:05.366Z,11.55
2023-02-24T23:23:32.260Z,11.76
2023-02-24T23:25:59.741Z,11.77
2023-02-24T23:28:27.028Z,11.43
2023-02-24T23:30:55.010Z,11.45
2023-02-24T23:33:22.698Z,11.56
2023-02-24T23:35:49.921Z,11.57
2023-02-24T23:38:16.969Z,11.39
2023-02-24T23:40:50.068Z,11.54
2023-02-24T23:43:17.594Z,11.66
2023-02-24T23:45:44.435Z,11.55
2023-02-24T23:48:13.762Z,11.39
2023-02-24T23:50:41.687Z,11.39
2023-02-24T23:53:09.006Z,11.10
2023-02-24T23:55:36.109Z,11.14
2023-02-24T23:58:03.851Z,11.17
